Orléans – Saint-Denis-de-l'Hôtel Airport

LFOZ · Loiret, Centre, Frankrijk

METAR historie LFOZ · Orléans – Saint-Denis-de-l'Hôtel Airport

Hieronder zie je METAR's van de afgelopen dagen. Kies een jaar om door oudere METAR's te bladeren, vanaf het jaar 2007.

6 december 2022

Tijd Code Weer Temp. Zicht Plafond Wind METAR/SPECI
14:30
M
5 °C 10 km+ 2.300 ft 060° 060° 4 kt METAR LFOZ 061330Z AUTO 06004KT 020V080 9999 FEW013 BKN023 OVC028 05/02 Q1020
14:00
M
5 °C 10 km+ 1.300 ft 060° 060° 6 kt METAR LFOZ 061300Z AUTO 06006KT 9999 BKN013 OVC027 05/02 Q1020
13:30
M
4 °C 10 km+ 1.100 ft 050° 050° 7 kt METAR LFOZ 061230Z AUTO 05007KT 360V080 9999 BKN011 OVC027 04/02 Q1020
13:00
M
4 °C 10 km+ 2.700 ft 050° 050° 5 kt METAR LFOZ 061200Z AUTO 05005KT 9999 OVC027 04/02 Q1020
12:30
M
4 °C 10 km+ 2.800 ft Var 000° 0 kt METAR LFOZ 061130Z AUTO 00000KT 9999 OVC028 04/02 Q1020
12:00
M
3 °C 10 km+ 2.800 ft Var Var 3 kt METAR LFOZ 061100Z AUTO VRB03KT 9999 FEW008 OVC028 03/02 Q1021
11:30
I
3 °C 10 km+ 800 ft 040° 040° 6 kt METAR LFOZ 061030Z AUTO 04006KT 010V070 9999 BKN008 OVC029 03/02 Q1021
11:00
I
3 °C 10 km+ 900 ft 040° 040° 5 kt METAR LFOZ 061000Z AUTO 04005KT 010V070 9999 OVC009 03/02 Q1021
10:30
I
3 °C 9 km 800 ft 040° 040° 5 kt METAR LFOZ 060930Z AUTO 04005KT 360V060 9000 OVC008 03/02 Q1021
10:00
I
3 °C 8 km 700 ft 030° 030° 4 kt METAR LFOZ 060900Z AUTO 03004KT 360V060 8000 OVC007 03/01 Q1021
09:30
I
3 °C 7 km 700 ft Var Var 3 kt METAR LFOZ 060830Z AUTO VRB03KT 7000 OVC007 03/02 Q1021
09:00
I
3 °C 8 km 700 ft 030° 030° 3 kt METAR LFOZ 060800Z AUTO 03003KT 8000 OVC007 03/02 Q1021
08:30
I
3 °C 8 km 700 ft Var Var 2 kt METAR LFOZ 060730Z AUTO VRB02KT 8000 OVC007 03/02 Q1020
08:00
I
3 °C 7 km 700 ft 040° 040° 3 kt METAR LFOZ 060700Z AUTO 04003KT 010V070 7000 OVC007 03/02 Q1020
07:30
I
3 °C 7 km 700 ft 050° 050° 3 kt METAR LFOZ 060630Z AUTO 05003KT 020V080 7000 OVC007 03/02 Q1020
07:00
I
2 °C 7 km 700 ft 050° 050° 3 kt METAR LFOZ 060600Z AUTO 05003KT 7000 OVC007 02/01 Q1020
06:30
I
2 °C 8 km 700 ft 040° 040° 3 kt METAR LFOZ 060530Z AUTO 04003KT 8000 OVC007 02/01 Q1020
06:00
I
2 °C 8 km 800 ft Var Var 3 kt METAR LFOZ 060500Z AUTO VRB03KT 8000 BKN008 OVC032 02/01 Q1020
05:30
I
2 °C 7 km 700 ft 040° 040° 4 kt METAR LFOZ 060430Z AUTO 04004KT 360V060 7000 BKN007 OVC031 02/01 Q1020
05:00
M
2 °C 7 km 3.000 ft 040° 040° 4 kt METAR LFOZ 060400Z AUTO 04004KT 7000 SCT008 OVC030 02/01 Q1020
04:30
M
2 °C 7 km 2.800 ft 040° 040° 4 kt METAR LFOZ 060330Z AUTO 04004KT 010V070 7000 FEW007 OVC028 02/01 Q1020
04:00
M
2 °C 7 km 2.800 ft 050° 050° 4 kt METAR LFOZ 060300Z AUTO 05004KT 7000 SCT008 OVC028 02/01 Q1020
03:30
I
2 °C 8 km 800 ft 050° 050° 4 kt METAR LFOZ 060230Z AUTO 05004KT 8000 BKN008 OVC029 02/01 Q1020
03:00
M
2 °C 8 km 2.900 ft 060° 060° 4 kt METAR LFOZ 060200Z AUTO 06004KT 020V080 8000 OVC029 02/01 Q1020
02:30
V
2 °C 9 km 3.000 ft 060° 060° 3 kt METAR LFOZ 060130Z AUTO 06003KT 9000 FEW009 OVC030 02/01 Q1021
02:00
M
2 °C 7 km 3.000 ft Var Var 3 kt METAR LFOZ 060100Z AUTO VRB03KT 7000 FEW025 OVC030 02/01 Q1021
01:30
M
2 °C 7 km 3.100 ft 040° 040° 4 kt METAR LFOZ 060030Z AUTO 04004KT 7000 FEW023 OVC031 02/01 Q1021
01:00
M
3 °C 7 km 2.200 ft 040° 040° 3 kt METAR LFOZ 060000Z AUTO 04003KT 7000 OVC022 03/01 Q1021
00:30
M
3 °C 7 km 2.200 ft 060° 060° 4 kt METAR LFOZ 052330Z AUTO 06004KT 7000 FEW007 OVC022 03/01 Q1021
00:00
I
3 °C 6 km 700 ft 050° 050° 5 kt METAR LFOZ 052300Z AUTO 05005KT 6000 BKN007 OVC021 03/02 Q1021

5 december 2022

Tijd Code Weer Temp. Zicht Plafond Wind METAR/SPECI
23:30
I
3 °C 6 km 800 ft 040° 040° 4 kt METAR LFOZ 052230Z AUTO 04004KT 6000 BKN008 OVC022 03/02 Q1021
23:00
I
3 °C 6 km 600 ft 040° 040° 5 kt METAR LFOZ 052200Z AUTO 04005KT 6000 BKN006 OVC022 03/02 Q1021
22:30
I
3 °C 5 km 500 ft 040° 040° 4 kt METAR LFOZ 052130Z AUTO 04004KT 360V070 5000 BR BKN005 BKN009 OVC022 03/02 Q1021
22:00
I
3 °C 5 km 500 ft 040° 040° 4 kt METAR LFOZ 052100Z AUTO 04004KT 360V060 5000 BR OVC005 03/02 Q1021
21:30
I
3 °C 5 km 600 ft 040° 040° 5 kt METAR LFOZ 052030Z AUTO 04005KT 010V070 5000 BR OVC006 03/02 Q1021
21:00
I
3 °C 5 km 600 ft 050° 050° 4 kt METAR LFOZ 052000Z AUTO 05004KT 360V060 5000 BR OVC006 03/02 Q1021
20:30
I
3 °C 6 km 700 ft 030° 030° 5 kt METAR LFOZ 051930Z AUTO 03005KT 360V070 6000 OVC007 03/02 Q1021
20:00
M
4 °C 10 km+ 1.400 ft 040° 040° 4 kt METAR LFOZ 051900Z AUTO 04004KT 9999 BKN014 OVC024 04/02 Q1021
19:30
M
4 °C 10 km+ 1.500 ft 030° 030° 2 kt METAR LFOZ 051830Z AUTO 03002KT 9999 OVC015 04/02 Q1021
19:00
M
4 °C 10 km+ 1.400 ft 020° 020° 1 kt METAR LFOZ 051800Z AUTO 02001KT 9999 OVC014 04/02 Q1021
18:30
M
4 °C 10 km+ 1.300 ft 020° 020° 3 kt METAR LFOZ 051730Z AUTO 02003KT 9999 OVC013 04/02 Q1020
18:00
M
4 °C 10 km+ 1.400 ft 360° 360° 3 kt METAR LFOZ 051700Z AUTO 36003KT 9999 BKN014 OVC027 04/02 Q1020
17:30
M
4 °C 10 km+ 1.600 ft Var Var 1 kt METAR LFOZ 051630Z AUTO VRB01KT 9999 BKN016 OVC027 04/02 Q1020
17:00
M
4 °C 10 km+ 2.700 ft Var Var 1 kt METAR LFOZ 051600Z AUTO VRB01KT 9999 OVC027 04/02 Q1020
16:30
M
4 °C 10 km+ 2.800 ft 360° 360° 2 kt METAR LFOZ 051530Z AUTO 36002KT 9999 OVC028 04/02 Q1020
16:00
M
4 °C 10 km+ 2.900 ft Var Var 2 kt METAR LFOZ 051500Z AUTO VRB02KT 9999 FEW010 OVC029 04/02 Q1020
15:30
V
4 °C 10 km+ 3.000 ft 310° 310° 1 kt METAR LFOZ 051430Z AUTO 31001KT 9999 SCT013 OVC030 04/02 Q1020
15:00
M
4 °C 10 km+ 1.100 ft Var Var 2 kt METAR LFOZ 051400Z AUTO VRB02KT 9999 OVC011 04/02 Q1020
14:30
M
4 °C 9 km 1.000 ft Var Var 2 kt METAR LFOZ 051330Z AUTO VRB02KT 9000 OVC010 04/02 Q1020
14:00
I
4 °C 7 km 800 ft 310° 310° 3 kt METAR LFOZ 051300Z AUTO 31003KT 280V360 7000 OVC008 04/02 Q1020
13:30
I
4 °C 7 km 800 ft Var Var 2 kt METAR LFOZ 051230Z AUTO VRB02KT 7000 OVC008 04/02 Q1020
13:00
I
4 °C 10 km+ 900 ft Var Var 2 kt METAR LFOZ 051200Z AUTO VRB02KT 9999 OVC009 04/03 Q1020
12:30
I
4 °C 7 km 800 ft 340° 340° 3 kt METAR LFOZ 051130Z AUTO 34003KT 310V040 7000 OVC008 04/03 Q1020
12:00
I
4 °C 7 km 700 ft Var Var 2 kt METAR LFOZ 051100Z AUTO VRB02KT 7000 OVC007 04/03 Q1020
11:30
I
4 °C 10 km+ 800 ft Var Var 1 kt METAR LFOZ 051030Z AUTO VRB01KT 9999 OVC008 04/02 Q1020
11:00
M
4 °C 10 km+ 1.100 ft 290° 290° 3 kt METAR LFOZ 051000Z AUTO 29003KT 9999 OVC011 04/02 Q1020
10:30
I
3 °C 7 km 700 ft 280° 280° 3 kt METAR LFOZ 050930Z AUTO 28003KT 7000 BKN007 OVC012 03/02 Q1020
10:00
I
3 °C 6 km 700 ft 250° 250° 2 kt METAR LFOZ 050900Z AUTO 25002KT 6000 OVC007 03/03 Q1020
09:30
I
3 °C 5 km 500 ft 270° 270° 2 kt METAR LFOZ 050830Z AUTO 27002KT 5000 BR OVC005 03/03 Q1019
09:00
I
3 °C 5 km 500 ft Var Var 2 kt METAR LFOZ 050800Z AUTO VRB02KT 5000 BR OVC005 03/02 Q1019
08:30
I
3 °C 5 km 600 ft Var Var 3 kt METAR LFOZ 050730Z AUTO VRB03KT 5000 BR BKN006 OVC017 03/02 Q1019
08:00
M
3 °C 5 km 1.300 ft 330° 330° 2 kt METAR LFOZ 050700Z AUTO 33002KT 5000 BR SCT008 BKN013 OVC018 03/03 Q1019
07:30
I
3 °C 5 km 900 ft Var Var 2 kt METAR LFOZ 050630Z AUTO VRB02KT 5000 BR BKN009 OVC013 03/03 Q1018
07:00
I
3 °C 4,7 km 1.300 ft Var Var 2 kt METAR LFOZ 050600Z AUTO VRB02KT 4700 BR SCT006 OVC013 03/03 Q1018
06:30
I
3 °C 4,2 km 500 ft Var Var 2 kt METAR LFOZ 050530Z AUTO VRB02KT 4200 BR OVC005 03/03 Q1018
06:00
I
3 °C 4,7 km 600 ft 340° 340° 2 kt METAR LFOZ 050500Z AUTO 34002KT 4700 BR OVC006 03/03 Q1017
05:30
I
3 °C 4,5 km 500 ft Var Var 2 kt METAR LFOZ 050430Z AUTO VRB02KT 4500 BR OVC005 03/03 Q1017
05:00
I
3 °C 4,3 km 500 ft 330° 330° 4 kt METAR LFOZ 050400Z AUTO 33004KT 4300 BR OVC005 03/03 Q1017
04:30
I
3 °C 4,7 km 500 ft Var Var 3 kt METAR LFOZ 050330Z AUTO VRB03KT 4700 BR OVC005 03/03 Q1017
04:00
I
3 °C 5 km 600 ft 330° 330° 3 kt METAR LFOZ 050300Z AUTO 33003KT 5000 BR OVC006 03/03 Q1016
03:30
I
3 °C 5 km 500 ft 310° 310° 2 kt METAR LFOZ 050230Z AUTO 31002KT 5000 BR OVC005 03/03 Q1016
03:00
I
3 °C 5 km 600 ft Var 000° 0 kt METAR LFOZ 050200Z AUTO 00000KT 5000 BR OVC006 03/03 Q1016
02:30
I
3 °C 5 km 500 ft 330° 330° 2 kt METAR LFOZ 050130Z AUTO 33002KT 5000 BR OVC005 03/03 Q1016
02:00
I
3 °C 5 km 600 ft Var Var 1 kt METAR LFOZ 050100Z AUTO VRB01KT 5000 BR OVC006 03/03 Q1016
01:30
I
3 °C 5 km 600 ft 330° 330° 2 kt METAR LFOZ 050030Z AUTO 33002KT 5000 -DZ BR OVC006 03/03 Q1016
01:00
I
3 °C 5 km 600 ft Var Var 2 kt METAR LFOZ 050000Z AUTO VRB02KT 5000 BR OVC006 03/03 Q1016
00:30
I
3 °C 4,6 km 600 ft 330° 330° 3 kt METAR LFOZ 042330Z AUTO 33003KT 310V010 4600 -RA BR OVC006 03/03 Q1015
00:00
I
3 °C 5 km 600 ft Var Var 3 kt METAR LFOZ 042300Z AUTO VRB03KT 5000 BR OVC006 03/03 Q1015

4 december 2022

Tijd Code Weer Temp. Zicht Plafond Wind METAR/SPECI
23:30
I
4 °C 4,5 km 500 ft 010° 010° 4 kt METAR LFOZ 042230Z AUTO 01004KT 4500 -RA BR OVC005 04/03 Q1015
23:00
I
4 °C 4,9 km 600 ft 020° 020° 3 kt METAR LFOZ 042200Z AUTO 02003KT 4900 BR OVC006 04/03 Q1015
22:30
I
4 °C 4,7 km 500 ft 030° 030° 3 kt METAR LFOZ 042130Z AUTO 03003KT 340V060 4700 BR OVC005 04/03 Q1014
22:00
I
4 °C 4,7 km 500 ft Var Var 3 kt METAR LFOZ 042100Z AUTO VRB03KT 4700 BR OVC005 04/03 Q1014
21:30
I
4 °C 5 km 500 ft Var Var 3 kt METAR LFOZ 042030Z AUTO VRB03KT 5000 -RA BR OVC005 04/03 Q1014
21:00
I
4 °C 5 km 600 ft 040° 040° 4 kt METAR LFOZ 042000Z AUTO 04004KT 360V070 5000 BR OVC006 04/03 Q1014
20:30
I
4 °C 5 km 600 ft Var Var 3 kt METAR LFOZ 041930Z AUTO VRB03KT 5000 BR OVC006 04/03 Q1013
20:00
I
4 °C 6 km 600 ft 030° 030° 3 kt METAR LFOZ 041900Z AUTO 03003KT 350V080 6000 OVC006 04/03 Q1013
19:30
I
4 °C 6 km 600 ft 040° 040° 3 kt METAR LFOZ 041830Z AUTO 04003KT 360V080 6000 OVC006 04/03 Q1013
19:00
I
4 °C 5 km 600 ft 010° 010° 4 kt METAR LFOZ 041800Z AUTO 01004KT 5000 BR OVC006 04/03 Q1012
18:30
I
4 °C 5 km 600 ft 020° 020° 4 kt METAR LFOZ 041730Z AUTO 02004KT 5000 BR OVC006 04/03 Q1012
18:00
I
4 °C 5 km 600 ft 030° 030° 3 kt METAR LFOZ 041700Z AUTO 03003KT 360V060 5000 BR OVC006 04/03 Q1012
17:30
I
4 °C 6 km 600 ft 020° 020° 3 kt METAR LFOZ 041630Z AUTO 02003KT 6000 OVC006 04/03 Q1012
17:00
I
4 °C 5 km 600 ft 040° 040° 4 kt METAR LFOZ 041600Z AUTO 04004KT 5000 BR OVC006 04/03 Q1012
16:30
I
4 °C 5 km 600 ft 040° 040° 4 kt METAR LFOZ 041530Z AUTO 04004KT 360V080 5000 BR OVC006 04/03 Q1011
16:00
I
4 °C 5 km 600 ft 040° 040° 5 kt METAR LFOZ 041500Z AUTO 04005KT 5000 BR OVC006 04/03 Q1011
15:30
I
4 °C 4,3 km 500 ft 030° 030° 3 kt METAR LFOZ 041430Z AUTO 03003KT 4300 BR OVC005 04/04 Q1011
15:00
I
4 °C 3,5 km 500 ft 040° 040° 4 kt METAR LFOZ 041400Z AUTO 04004KT 3500 BR OVC005 04/04 Q1011
14:30
I
4 °C 6 km 600 ft 060° 060° 3 kt METAR LFOZ 041330Z AUTO 06003KT 6000 OVC006 04/04 Q1011
14:00
I
4 °C 7 km 700 ft Var Var 2 kt METAR LFOZ 041300Z AUTO VRB02KT 7000 OVC007 04/03 Q1011
13:30
I
4 °C 5 km 600 ft 050° 050° 4 kt METAR LFOZ 041230Z AUTO 05004KT 030V090 5000 BR OVC006 04/03 Q1011
13:00
I
4 °C 6 km 600 ft 070° 070° 5 kt METAR LFOZ 041200Z AUTO 07005KT 6000 OVC006 04/03 Q1011
12:30
I
4 °C 6 km 600 ft 060° 060° 6 kt METAR LFOZ 041130Z AUTO 06006KT 6000 BKN006 OVC010 04/03 Q1011
12:00
I
4 °C 5 km 600 ft 050° 050° 6 kt METAR LFOZ 041100Z AUTO 05006KT 5000 BR OVC006 04/03 Q1011
11:30
I
3 °C 5 km 600 ft 070° 070° 8 kt METAR LFOZ 041030Z AUTO 07008KT 5000 BR OVC006 03/02 Q1011
11:00
I
3 °C 5 km 600 ft 060° 060° 8 kt METAR LFOZ 041000Z AUTO 06008KT 5000 BR OVC006 03/02 Q1011

Wij en derden volgen je internetgedrag op onze website met cookies. Als je doorgaat, gaan we ervan uit dat je akkoord gaat met onze cookiebeleid.